Terminal Aerodrome Forecast
Issued by NWS Duluth, MN

Home | Current Version | Previous Version | Text Only | Print | Product List | Glossary On
Versions: 1 2 3 4 5 6 7 8 9 10 11 12 13 14 15 16 17 18 19 20 21 22 23 24
255
FTUS43 KDLH 072121 AAB
TAFDLH
TAF AMD
KDLH 072121Z 0721/0818 27020G28KT 1SM -SN BLSN BKN024 OVC035
      TEMPO 0721/0724 4SM -SN BLSN SCT025 OVC035
     FM080000 27020G28KT 3SM -SN BLSN VCSH OVC025
     FM080100 29017G24KT 4SM -SN BLSN OVC015
     FM080900 32014G21KT P6SM VCSH OVC025
     FM081400 33012G24KT P6SM VCSH OVC030=

USA.gov is the U.S. government's official web portal to all federal, state and local government web resources and services.